Time;durP1;ratioP1;P1;durP2;ratioP2;P2;SDS_P1;SDS_P2;PMS_P1;PMS_P2;Temp;Humidity;BMP_temperature;BMP_pressure;BME280_temperature;BME280_humidity;BME280_pressure;Samples;Min_cycle;Max_cycle;Signal;HPM_P1;HPM_P2
2022/07/26 00:00:18;;;;;;;2.43;1.87;;;21.30;99.90;;;;;;5072794;28;20464;-70
2022/07/26 00:02:46;;;;;;;1.50;1.40;;;21.20;99.90;;;;;;5072841;28;20558;-70
2022/07/26 00:05:13;;;;;;;2.63;2.37;;;21.20;99.90;;;;;;5072918;28;20484;-70
2022/07/26 00:07:39;;;;;;;1.70;1.43;;;21.20;99.90;;;;;;5072977;28;20473;-70
2022/07/26 00:10:07;;;;;;;2.20;2.00;;;21.30;99.90;;;;;;5072161;28;20876;-69
2022/07/26 00:12:34;;;;;;;1.70;1.60;;;21.20;99.90;;;;;;5072801;28;20539;-70
2022/07/26 00:15:00;;;;;;;2.30;1.90;;;21.20;99.90;;;;;;5072733;28;20492;-69
2022/07/26 00:17:28;;;;;;;3.17;2.30;;;21.20;99.90;;;;;;5072428;28;20829;-71
2022/07/26 00:19:55;;;;;;;2.07;1.57;;;21.20;99.90;;;;;;5072234;28;20459;-70
2022/07/26 00:22:34;;;;;;;2.40;1.40;;;21.20;99.90;;;;;;5072782;28;20459;-70
2022/07/26 00:25:01;;;;;;;2.37;1.60;;;21.20;99.90;;;;;;5072602;28;20451;-70
2022/07/26 00:27:27;;;;;;;1.43;1.33;;;21.20;99.90;;;;;;5072847;28;20464;-69
2022/07/26 00:29:54;;;;;;;3.27;1.63;;;21.30;99.90;;;;;;5072116;28;20467;-70
2022/07/26 00:32:21;;;;;;;2.50;1.80;;;21.30;99.90;;;;;;5072622;28;20470;-70
2022/07/26 00:34:50;;;;;;;1.87;1.60;;;21.40;99.90;;;;;;5072339;28;20480;-69
2022/07/26 00:37:17;;;;;;;1.63;1.20;;;21.40;99.90;;;;;;5072464;28;20509;-70
2022/07/26 00:39:43;;;;;;;2.63;1.70;;;21.40;99.90;;;;;;5071404;28;20472;-70
2022/07/26 00:42:10;;;;;;;2.07;1.83;;;21.50;99.90;;;;;;5072034;28;20460;-70
2022/07/26 00:44:38;;;;;;;2.23;1.93;;;21.50;99.90;;;;;;5072369;28;20463;-70
2022/07/26 00:47:04;;;;;;;2.63;1.80;;;21.50;99.90;;;;;;5072677;28;20479;-70
2022/07/26 00:49:31;;;;;;;1.80;1.60;;;21.50;99.90;;;;;;5071232;28;20490;-70
2022/07/26 00:52:00;;;;;;;2.17;1.70;;;21.60;99.90;;;;;;5072491;28;20475;-70
2022/07/26 00:54:27;;;;;;;7.00;2.33;;;21.60;99.90;;;;;;5072126;28;20490;-71
2022/07/26 00:56:54;;;;;;;2.37;1.70;;;21.60;99.90;;;;;;5071904;28;20566;-70
2022/07/26 00:59:20;;;;;;;1.70;1.60;;;21.60;99.90;;;;;;5071218;28;20467;-70
2022/07/26 01:01:47;;;;;;;1.87;1.67;;;21.60;99.90;;;;;;5071776;28;20472;-70
2022/07/26 01:04:14;;;;;;;1.63;1.53;;;21.60;99.90;;;;;;5071864;28;20460;-69
2022/07/26 01:06:41;;;;;;;1.70;1.40;;;21.70;99.90;;;;;;5071614;28;20487;-70
2022/07/26 01:09:10;;;;;;;1.93;1.60;;;21.70;99.90;;;;;;5071622;28;20488;-69
2022/07/26 01:11:37;;;;;;;1.97;1.20;;;21.70;99.90;;;;;;5072470;28;20467;-70
2022/07/26 01:14:03;;;;;;;2.03;1.10;;;21.70;99.90;;;;;;5072547;28;20482;-70
2022/07/26 01:16:30;;;;;;;1.23;1.10;;;21.70;99.90;;;;;;5072002;28;20489;-68
2022/07/26 01:18:57;;;;;;;1.30;1.03;;;21.80;99.90;;;;;;5072206;28;20950;-69
2022/07/26 01:21:28;;;;;;;2.07;1.23;;;21.80;99.90;;;;;;5071710;28;20463;-69
2022/07/26 01:23:55;;;;;;;1.67;1.40;;;21.80;99.90;;;;;;5072377;28;20460;-69
2022/07/26 01:26:22;;;;;;;1.23;1.10;;;21.80;99.90;;;;;;5071787;28;20477;-70
2022/07/26 01:28:49;;;;;;;1.50;1.23;;;21.70;99.90;;;;;;5071898;28;20464;-70
2022/07/26 01:31:16;;;;;;;1.40;1.20;;;21.70;99.90;;;;;;5071239;28;20480;-70
2022/07/26 01:33:43;;;;;;;1.73;1.40;;;21.70;99.90;;;;;;5071961;28;20460;-70
2022/07/26 01:36:11;;;;;;;1.70;1.60;;;21.60;99.90;;;;;;5072040;28;20484;-67
2022/07/26 01:38:39;;;;;;;1.50;1.40;;;21.60;99.90;;;;;;5071844;28;20620;-68
2022/07/26 01:41:06;;;;;;;1.43;1.17;;;21.60;99.90;;;;;;5071317;28;20460;-70
2022/07/26 01:43:33;;;;;;;1.80;1.50;;;21.60;99.90;;;;;;5072147;28;20469;-70
2022/07/26 01:45:59;;;;;;;5.50;1.50;;;21.50;99.90;;;;;;5071939;28;20477;-70
2022/07/26 01:48:26;;;;;;;1.60;1.30;;;21.50;99.90;;;;;;5071453;28;20467;-70
2022/07/26 01:50:53;;;;;;;2.27;1.20;;;21.40;99.90;;;;;;5072205;28;20466;-68
2022/07/26 01:53:20;;;;;;;1.27;1.17;;;21.40;99.90;;;;;;5075438;28;20462;-70
2022/07/26 01:55:48;;;;;;;1.47;1.37;;;21.40;99.90;;;;;;5075260;28;20956;-70
2022/07/26 01:58:14;;;;;;;1.40;1.30;;;21.40;99.90;;;;;;5075097;28;20460;-70
2022/07/26 02:00:41;;;;;;;1.57;1.47;;;21.40;99.90;;;;;;5074395;28;20815;-69
2022/07/26 02:03:08;;;;;;;1.50;1.30;;;21.40;99.90;;;;;;5075133;28;20829;-69
2022/07/26 02:05:35;;;;;;;1.40;1.20;;;21.40;99.90;;;;;;5074749;28;20479;-70
2022/07/26 02:08:02;;;;;;;2.27;1.30;;;21.40;99.90;;;;;;5074949;28;20457;-70
2022/07/26 02:10:59;;;;;;;1.30;1.13;;;21.40;99.90;;;;;;5074017;28;20459;-69
2022/07/26 02:13:17;;;;;;;1.47;1.10;;;21.40;99.90;;;;;;5074441;28;20929;-68
2022/07/26 02:15:44;;;;;;;1.60;1.40;;;21.30;99.90;;;;;;5074341;28;20497;-69
2022/07/26 02:18:11;;;;;;;1.60;1.50;;;21.30;99.90;;;;;;5074623;28;20956;-69
2022/07/26 02:20:37;;;;;;;2.53;1.60;;;21.30;99.90;;;;;;5073884;28;20463;-69
2022/07/26 02:23:06;;;;;;;1.40;1.30;;;21.30;99.90;;;;;;5074777;28;20814;-70
2022/07/26 02:25:32;;;;;;;1.30;1.20;;;21.30;99.90;;;;;;5074224;28;20478;-70
2022/07/26 02:28:00;;;;;;;2.90;1.50;;;21.30;99.90;;;;;;5074589;28;20470;-69
2022/07/26 02:30:28;;;;;;;1.30;1.20;;;21.30;99.90;;;;;;5073735;28;20463;-69
2022/07/26 02:32:55;;;;;;;1.30;1.20;;;21.30;99.90;;;;;;5074207;28;20459;-68
2022/07/26 02:35:22;;;;;;;2.00;1.33;;;21.30;99.90;;;;;;5074277;28;20496;-70
2022/07/26 02:37:49;;;;;;;1.30;1.20;;;21.30;99.90;;;;;;5073934;28;20470;-69
2022/07/26 02:40:15;;;;;;;1.37;1.27;;;21.30;99.90;;;;;;5073943;28;20833;-70
2022/07/26 02:42:42;;;;;;;2.20;1.40;;;21.40;99.90;;;;;;5073778;28;20464;-69
2022/07/26 02:45:10;;;;;;;1.50;1.10;;;21.40;99.90;;;;;;5074032;28;20456;-69
2022/07/26 02:47:46;;;;;;;1.80;1.10;;;21.40;99.90;;;;;;5073791;28;20495;-68
2022/07/26 02:50:15;;;;;;;1.47;1.27;;;21.30;99.90;;;;;;5074076;28;20476;-69
2022/07/26 02:52:42;;;;;;;1.60;1.27;;;21.40;99.90;;;;;;5074231;28;20464;-69
2022/07/26 02:55:09;;;;;;;1.60;1.50;;;21.30;99.90;;;;;;5074569;28;20483;-70
2022/07/26 02:57:36;;;;;;;1.30;1.20;;;21.30;99.90;;;;;;5073834;28;20455;-70
2022/07/26 03:00:04;;;;;;;1.37;1.20;;;21.30;99.90;;;;;;5073923;28;20814;-70
2022/07/26 03:02:31;;;;;;;1.03;0.93;;;21.20;99.90;;;;;;5073896;28;20464;-70
2022/07/26 03:05:01;;;;;;;1.63;1.10;;;21.20;99.90;;;;;;5074089;28;20869;-69
2022/07/26 03:07:28;;;;;;;1.83;1.27;;;21.20;99.90;;;;;;5073437;28;20468;-70
2022/07/26 03:09:54;;;;;;;1.30;0.90;;;21.20;99.90;;;;;;5073028;28;20837;-69
2022/07/26 03:12:21;;;;;;;1.30;1.20;;;21.10;99.90;;;;;;5073510;28;20463;-69
2022/07/26 03:14:48;;;;;;;2.07;1.30;;;21.10;99.90;;;;;;5072775;28;20463;-70
2022/07/26 03:17:14;;;;;;;2.23;1.40;;;21.10;99.90;;;;;;5073559;28;20465;-68
2022/07/26 03:19:41;;;;;;;1.20;1.00;;;21.10;99.90;;;;;;5071907;28;20463;-70
2022/07/26 03:22:10;;;;;;;1.20;1.10;;;21.10;99.90;;;;;;5073208;28;20467;-69
2022/07/26 03:24:37;;;;;;;1.40;1.20;;;21.10;99.90;;;;;;5072716;28;20459;-69
2022/07/26 03:27:04;;;;;;;3.03;1.70;;;21.10;99.90;;;;;;5072817;28;20480;-69
2022/07/26 03:29:31;;;;;;;1.40;1.30;;;21.00;99.90;;;;;;5072374;28;20837;-70
2022/07/26 03:31:57;;;;;;;1.83;1.50;;;21.00;99.90;;;;;;5044615;28;20493;-69
2022/07/26 03:34:24;;;;;;;1.40;1.30;;;21.00;99.90;;;;;;5038120;28;20463;-70
2022/07/26 03:36:51;;;;;;;1.50;1.30;;;21.00;99.90;;;;;;5042477;28;20491;-70
2022/07/26 03:39:19;;;;;;;1.40;1.30;;;21.00;99.90;;;;;;5040523;28;20453;-70
2022/07/26 03:41:46;;;;;;;1.30;1.13;;;21.00;99.90;;;;;;5122016;22;20492;-67
2022/07/26 03:44:12;;;;;;;3.00;1.47;;;21.00;99.90;;;;;;5062798;28;20458;-66
2022/07/26 03:46:39;;;;;;;2.40;1.60;;;21.00;99.90;;;;;;5061260;28;21027;-67
2022/07/26 03:49:06;;;;;;;1.33;1.20;;;20.90;99.90;;;;;;5057158;28;20463;-66
2022/07/26 03:51:33;;;;;;;1.43;1.33;;;20.90;99.90;;;;;;5057587;28;21182;-67
2022/07/26 03:54:00;;;;;;;1.40;1.10;;;20.90;99.90;;;;;;5061830;28;20494;-67
2022/07/26 03:56:27;;;;;;;1.80;1.17;;;20.80;99.90;;;;;;5056861;28;20488;-67
2022/07/26 03:58:54;;;;;;;1.80;1.60;;;20.80;99.90;;;;;;5060097;28;20469;-67
2022/07/26 04:01:21;;;;;;;1.60;1.40;;;20.80;99.90;;;;;;5060936;28;20465;-67
2022/07/26 04:03:47;;;;;;;1.50;1.40;;;20.80;99.90;;;;;;5059243;28;20947;-67
2022/07/26 04:06:15;;;;;;;2.00;1.73;;;20.80;99.90;;;;;;5059882;28;20469;-67
2022/07/26 04:08:41;;;;;;;1.87;1.60;;;20.70;99.90;;;;;;5058415;28;20548;-68
2022/07/26 04:11:08;;;;;;;1.50;1.40;;;20.70;99.90;;;;;;5060049;28;20836;-67
2022/07/26 04:13:36;;;;;;;1.43;1.33;;;20.60;99.90;;;;;;5060663;28;20452;-67
2022/07/26 04:16:03;;;;;;;1.53;1.43;;;20.60;99.90;;;;;;5060653;28;20471;-67
2022/07/26 04:18:30;;;;;;;2.13;1.63;;;20.60;99.90;;;;;;5059502;28;21322;-68
2022/07/26 04:20:57;;;;;;;1.83;1.43;;;20.60;99.90;;;;;;5058721;28;20464;-67
2022/07/26 04:23:24;;;;;;;1.93;1.53;;;20.60;99.90;;;;;;5058236;28;20460;-68
2022/07/26 04:25:50;;;;;;;1.80;1.33;;;20.60;99.90;;;;;;5068075;28;20479;-68
2022/07/26 04:28:17;;;;;;;1.50;1.20;;;20.50;99.90;;;;;;5051835;28;20465;-68
2022/07/26 04:30:45;;;;;;;1.80;1.67;;;20.50;99.90;;;;;;5054059;28;20460;-68
2022/07/26 04:33:12;;;;;;;2.33;1.83;;;20.40;99.90;;;;;;5060325;28;20456;-69
2022/07/26 04:35:39;;;;;;;1.73;1.63;;;20.40;99.90;;;;;;5061642;28;20558;-69
2022/07/26 04:38:05;;;;;;;1.63;1.50;;;20.40;99.90;;;;;;5063084;28;20464;-69
2022/07/26 04:40:33;;;;;;;2.10;1.80;;;20.30;99.90;;;;;;5070920;28;20963;-68
2022/07/26 04:43:01;;;;;;;2.50;1.50;;;20.30;99.90;;;;;;5070985;28;20505;-68
2022/07/26 04:45:28;;;;;;;2.53;1.77;;;20.30;99.90;;;;;;5071023;28;20522;-68
2022/07/26 04:47:57;;;;;;;1.87;1.60;;;20.20;99.90;;;;;;5070752;28;20828;-69
2022/07/26 04:50:26;;;;;;;1.80;1.50;;;20.20;99.90;;;;;;5070432;28;20836;-68
2022/07/26 04:52:54;;;;;;;2.00;1.80;;;20.20;99.90;;;;;;5070833;28;20551;-69
2022/07/26 04:55:21;;;;;;;1.43;1.30;;;20.20;99.90;;;;;;5070602;28;20487;-68
2022/07/26 04:57:48;;;;;;;1.60;1.40;;;20.20;99.90;;;;;;5070548;28;20980;-67
2022/07/26 05:00:20;;;;;;;1.80;1.70;;;20.20;99.90;;;;;;5070568;28;20467;-68
2022/07/26 05:02:48;;;;;;;1.70;1.60;;;20.20;99.90;;;;;;5070930;28;20472;-68
2022/07/26 05:05:16;;;;;;;1.83;1.73;;;20.20;99.90;;;;;;5070718;28;20487;-67
2022/07/26 05:07:44;;;;;;;1.93;1.83;;;20.20;99.90;;;;;;5070610;28;20460;-68
2022/07/26 05:10:11;;;;;;;4.90;1.97;;;20.20;99.90;;;;;;5070139;28;20461;-68
2022/07/26 05:12:39;;;;;;;3.37;2.10;;;20.20;99.90;;;;;;5070610;28;20828;-68
2022/07/26 05:15:09;;;;;;;2.20;2.00;;;20.20;99.90;;;;;;5070592;28;20754;-74
2022/07/26 05:17:38;;;;;;;1.97;1.77;;;20.20;99.90;;;;;;5070519;28;20490;-69
2022/07/26 05:20:06;;;;;;;1.67;1.57;;;20.20;99.90;;;;;;5070165;28;20463;-69
2022/07/26 05:22:34;;;;;;;2.00;1.83;;;20.30;99.90;;;;;;5070465;28;20451;-68
2022/07/26 05:25:01;;;;;;;4.80;2.07;;;20.30;99.90;;;;;;5070282;28;20493;-68
2022/07/26 05:27:28;;;;;;;2.00;1.80;;;20.20;99.90;;;;;;5074725;28;20466;-69
2022/07/26 05:29:55;;;;;;;2.30;2.10;;;20.20;99.90;;;;;;5074325;28;20464;-70
2022/07/26 05:32:22;;;;;;;1.90;1.73;;;20.30;99.90;;;;;;5074647;28;20463;-69
2022/07/26 05:34:48;;;;;;;2.63;2.13;;;20.30;99.90;;;;;;5074405;28;20463;-69
2022/07/26 05:37:15;;;;;;;2.90;2.07;;;20.30;99.90;;;;;;5074674;28;20482;-69
2022/07/26 05:39:43;;;;;;;2.30;2.07;;;20.30;99.90;;;;;;5073810;28;20958;-69
2022/07/26 05:42:10;;;;;;;2.07;1.87;;;20.40;99.90;;;;;;5074445;28;20470;-69
2022/07/26 05:44:37;;;;;;;2.40;2.20;;;20.40;99.90;;;;;;5074390;28;20463;-69
2022/07/26 05:47:04;;;;;;;2.03;1.83;;;20.40;99.90;;;;;;5074544;28;20479;-71
2022/07/26 05:49:30;;;;;;;1.70;1.60;;;20.30;99.90;;;;;;5073863;28;20474;-68
2022/07/26 05:51:57;;;;;;;2.37;2.07;;;20.40;99.90;;;;;;5074361;28;20831;-68
2022/07/26 05:54:24;;;;;;;1.90;1.80;;;20.30;99.90;;;;;;5074543;28;20466;-69
2022/07/26 05:56:52;;;;;;;1.97;1.73;;;20.30;99.90;;;;;;5074134;28;20490;-69
2022/07/26 05:59:18;;;;;;;2.70;2.30;;;20.30;99.90;;;;;;5073882;28;20462;-69
2022/07/26 06:01:45;;;;;;;2.83;2.50;;;20.30;99.90;;;;;;5074174;28;20459;-69
2022/07/26 06:04:12;;;;;;;2.20;2.00;;;20.30;99.90;;;;;;5074708;28;20855;-68
2022/07/26 06:06:39;;;;;;;2.47;2.10;;;20.40;99.90;;;;;;5074381;28;20756;-69
2022/07/26 06:09:06;;;;;;;3.33;1.87;;;20.40;99.90;;;;;;5074062;28;21075;-69
2022/07/26 06:11:32;;;;;;;2.27;2.07;;;20.50;99.90;;;;;;5074060;28;20463;-70
2022/07/26 06:14:00;;;;;;;4.10;2.17;;;20.50;99.90;;;;;;5074052;28;20493;-69
2022/07/26 06:16:27;;;;;;;2.37;2.03;;;20.60;99.90;;;;;;5068459;28;20502;-70
2022/07/26 06:18:54;;;;;;;2.57;2.37;;;20.60;99.90;;;;;;5069273;28;20465;-70
2022/07/26 06:21:21;;;;;;;2.50;2.30;;;20.70;99.90;;;;;;5071619;28;20599;-70
2022/07/26 06:23:48;;;;;;;2.20;2.00;;;20.70;99.90;;;;;;5071853;28;20467;-72
2022/07/26 06:26:15;;;;;;;2.50;1.93;;;20.70;99.90;;;;;;5072159;28;20566;-67
2022/07/26 06:28:42;;;;;;;2.90;2.30;;;20.70;99.90;;;;;;5071302;28;20462;-68
2022/07/26 06:31:11;;;;;;;2.13;2.03;;;20.70;99.90;;;;;;5071717;28;20494;-68
2022/07/26 06:33:37;;;;;;;2.30;2.10;;;20.60;99.90;;;;;;5071645;28;20455;-68
2022/07/26 06:36:04;;;;;;;4.90;2.53;;;20.60;99.90;;;;;;5070820;28;20570;-69
2022/07/26 06:38:32;;;;;;;1.73;1.63;;;20.70;99.90;;;;;;5071671;28;20855;-68
2022/07/26 06:40:59;;;;;;;2.10;1.70;;;20.70;99.90;;;;;;5071070;28;20509;-68
2022/07/26 06:43:25;;;;;;;2.60;1.70;;;20.80;99.90;;;;;;5072076;28;20463;-69
2022/07/26 06:45:52;;;;;;;1.87;1.77;;;20.90;99.90;;;;;;5071056;28;20483;-69
2022/07/26 06:48:20;;;;;;;1.50;1.40;;;20.90;99.90;;;;;;5072104;28;20455;-69
2022/07/26 06:50:47;;;;;;;3.30;1.80;;;21.00;99.90;;;;;;5071004;28;20495;-70
2022/07/26 06:53:14;;;;;;;5.03;1.93;;;21.00;99.90;;;;;;5071876;28;20459;-69
2022/07/26 06:55:41;;;;;;;2.10;1.57;;;21.10;99.90;;;;;;5071344;28;20479;-70
2022/07/26 06:58:08;;;;;;;2.40;1.50;;;21.20;99.90;;;;;;5070943;28;20854;-69
2022/07/26 07:00:34;;;;;;;1.87;1.33;;;21.20;99.90;;;;;;5071356;28;20455;-68
2022/07/26 07:03:01;;;;;;;1.80;1.27;;;21.20;99.90;;;;;;5071095;28;20483;-69
2022/07/26 07:05:29;;;;;;;5.23;1.87;;;21.20;99.90;;;;;;5071276;28;20994;-68
2022/07/26 07:07:56;;;;;;;5.63;1.50;;;21.20;99.90;;;;;;5071039;28;20467;-68
2022/07/26 07:10:22;;;;;;;1.37;1.20;;;21.20;99.90;;;;;;5070741;28;20959;-67
2022/07/26 07:12:49;;;;;;;1.47;1.17;;;21.20;99.90;;;;;;5071088;28;20468;-68
2022/07/26 07:15:16;;;;;;;1.50;1.40;;;21.20;99.90;;;;;;5071691;28;20479;-68
2022/07/26 07:17:43;;;;;;;1.90;1.20;;;21.30;99.90;;;;;;5070659;28;21283;-68
2022/07/26 07:20:11;;;;;;;1.63;1.10;;;21.40;99.90;;;;;;5071993;28;20487;-67
2022/07/26 07:22:39;;;;;;;1.73;1.60;;;21.50;99.90;;;;;;5072382;28;20464;-68
2022/07/26 07:25:06;;;;;;;2.33;1.40;;;21.60;99.90;;;;;;5071984;28;20468;-70
2022/07/26 07:27:33;;;;;;;1.90;1.20;;;21.60;99.90;;;;;;5071778;28;20460;-70
2022/07/26 07:29:59;;;;;;;1.73;1.47;;;21.70;99.90;;;;;;5071573;28;20459;-70
2022/07/26 07:32:26;;;;;;;1.20;1.03;;;21.70;99.80;;;;;;5072406;28;20466;-69
2022/07/26 07:34:53;;;;;;;1.60;1.40;;;21.80;99.70;;;;;;5071945;28;20955;-69
2022/07/26 07:37:19;;;;;;;1.30;1.20;;;21.80;99.80;;;;;;5072066;28;20492;-69
2022/07/26 07:39:47;;;;;;;1.40;1.10;;;21.90;99.60;;;;;;5071325;28;20460;-68
2022/07/26 07:42:14;;;;;;;1.20;1.10;;;22.00;98.80;;;;;;5072748;28;20478;-68
2022/07/26 07:44:41;;;;;;;2.33;1.37;;;22.00;98.50;;;;;;5071440;28;20898;-70
2022/07/26 07:47:08;;;;;;;2.20;1.40;;;22.10;99.00;;;;;;5071508;28;20997;-70
2022/07/26 07:49:35;;;;;;;1.40;1.30;;;22.20;99.10;;;;;;5069944;28;20515;-69
2022/07/26 07:52:02;;;;;;;2.00;1.43;;;22.30;99.40;;;;;;5071613;28;20712;-69
2022/07/26 07:54:28;;;;;;;1.63;1.10;;;22.40;98.60;;;;;;5071604;28;20463;-69
2022/07/26 07:56:56;;;;;;;1.53;1.30;;;22.50;98.50;;;;;;5070860;28;20488;-68
2022/07/26 07:59:23;;;;;;;2.23;1.20;;;22.50;98.60;;;;;;5071056;28;20826;-68
2022/07/26 08:01:50;;;;;;;3.00;1.50;;;22.40;98.80;;;;;;5070903;28;20838;-68
2022/07/26 08:04:17;;;;;;;1.70;1.47;;;22.40;98.40;;;;;;5071176;28;20460;-68
2022/07/26 08:06:44;;;;;;;1.70;1.30;;;22.50;98.80;;;;;;5070601;28;20756;-68
2022/07/26 08:09:11;;;;;;;4.80;1.40;;;22.60;98.10;;;;;;5070950;28;20484;-69
2022/07/26 08:11:37;;;;;;;2.37;1.37;;;22.60;97.50;;;;;;5064985;28;20491;-69
2022/07/26 08:14:05;;;;;;;1.40;1.20;;;22.80;98.20;;;;;;5050802;28;20469;-69
2022/07/26 08:16:32;;;;;;;2.80;1.10;;;22.90;98.00;;;;;;5051291;28;20478;-68
2022/07/26 08:18:59;;;;;;;1.50;1.10;;;23.00;98.20;;;;;;5050521;28;20838;-69
2022/07/26 08:21:26;;;;;;;2.30;1.40;;;23.10;97.70;;;;;;5050761;28;20465;-68
2022/07/26 08:23:53;;;;;;;3.80;1.57;;;23.10;97.70;;;;;;5050592;28;20464;-69
2022/07/26 08:26:19;;;;;;;1.50;1.30;;;22.90;97.40;;;;;;5051173;28;20486;-69
2022/07/26 08:28:46;;;;;;;1.33;1.20;;;22.80;96.50;;;;;;5050594;28;20488;-69
2022/07/26 08:31:14;;;;;;;1.57;1.20;;;22.60;96.80;;;;;;5050741;28;20461;-68
2022/07/26 08:33:41;;;;;;;1.40;1.30;;;22.60;97.10;;;;;;5050728;28;20468;-70
2022/07/26 08:36:08;;;;;;;1.60;1.10;;;22.60;97.10;;;;;;5050821;28;20475;-69
2022/07/26 08:38:35;;;;;;;1.67;1.23;;;22.80;97.30;;;;;;5050833;28;20842;-68
2022/07/26 08:41:01;;;;;;;2.77;1.37;;;23.10;97.50;;;;;;5049903;28;20469;-69
2022/07/26 08:43:29;;;;;;;1.57;1.47;;;23.40;98.10;;;;;;5050813;28;20474;-69
2022/07/26 08:46:00;;;;;;;2.97;1.43;;;23.40;97.30;;;;;;5050084;28;20486;-69
2022/07/26 08:48:29;;;;;;;1.40;1.20;;;23.40;97.20;;;;;;5050972;28;20495;-69
2022/07/26 08:50:56;;;;;;;1.20;1.10;;;23.30;97.30;;;;;;5049575;28;20468;-69
2022/07/26 08:53:23;;;;;;;1.30;1.20;;;23.20;97.00;;;;;;5050403;28;20470;-69
2022/07/26 08:55:49;;;;;;;1.70;1.50;;;23.20;96.20;;;;;;5050523;28;20484;-69
2022/07/26 08:58:16;;;;;;;2.97;1.43;;;23.10;95.20;;;;;;5050299;28;20494;-68
2022/07/26 09:00:44;;;;;;;1.60;1.20;;;23.30;97.30;;;;;;5049721;28;20471;-67
2022/07/26 09:03:25;;;;;;;1.83;1.30;;;23.50;98.20;;;;;;5050269;28;20565;-67
2022/07/26 09:05:53;;;;;;;1.70;1.20;;;23.80;96.00;;;;;;5047478;28;20480;-69
2022/07/26 09:08:25;;;;;;;2.43;1.27;;;23.90;96.10;;;;;;5066554;28;20465;-70
2022/07/26 09:10:52;;;;;;;3.30;1.37;;;23.80;95.80;;;;;;5069854;28;20473;-69
2022/07/26 09:13:19;;;;;;;1.40;1.30;;;23.70;96.70;;;;;;5070666;28;20465;-70
2022/07/26 09:15:45;;;;;;;1.93;1.30;;;23.70;96.50;;;;;;5066253;28;20481;-68
2022/07/26 09:18:26;;;;;;;1.27;1.10;;;23.90;96.70;;;;;;5070597;28;20492;-69
2022/07/26 09:20:56;;;;;;;1.33;1.17;;;24.10;95.30;;;;;;5069790;28;20496;-70
2022/07/26 09:23:22;;;;;;;1.40;1.00;;;24.30;96.40;;;;;;5070647;28;20451;-69
2022/07/26 09:25:49;;;;;;;1.37;0.97;;;24.40;96.10;;;;;;5070265;28;20490;-69
2022/07/26 09:28:23;;;;;;;1.60;1.20;;;24.40;94.60;;;;;;5070317;28;20464;-70
2022/07/26 09:30:52;;;;;;;1.60;1.30;;;24.30;95.30;;;;;;5069857;28;20958;-68
2022/07/26 09:33:19;;;;;;;1.77;1.20;;;24.40;95.50;;;;;;5070438;28;20501;-69
2022/07/26 09:36:02;;;;;;;2.43;1.40;;;24.40;94.80;;;;;;5057751;28;20478;-69
2022/07/26 09:38:39;;;;;;;1.47;1.20;;;24.30;93.40;;;;;;5049731;28;21011;-72
2022/07/26 09:41:18;;;;;;;2.63;1.33;;;24.20;94.60;;;;;;5049442;28;20465;-71
2022/07/26 09:43:44;;;;;;;2.03;1.30;;;24.20;94.80;;;;;;5049847;28;20506;-71
2022/07/26 09:46:12;;;;;;;1.13;1.00;;;24.30;94.50;;;;;;5050208;28;20483;-71
2022/07/26 09:48:39;;;;;;;1.10;1.00;;;24.40;93.70;;;;;;5050247;28;20864;-71
2022/07/26 09:51:08;;;;;;;2.43;1.50;;;24.30;93.80;;;;;;5052504;28;20482;-69
2022/07/26 09:53:39;;;;;;;1.13;1.03;;;24.10;93.40;;;;;;5070351;28;20460;-71
2022/07/26 09:56:09;;;;;;;1.10;0.90;;;23.90;93.60;;;;;;5069910;28;20543;-70
2022/07/26 09:58:36;;;;;;;1.43;1.33;;;23.70;94.40;;;;;;5070559;28;20524;-71
2022/07/26 10:01:07;;;;;;;1.20;1.10;;;23.70;93.70;;;;;;5070064;28;20455;-70
2022/07/26 10:03:34;;;;;;;2.43;1.30;;;23.60;93.40;;;;;;5066197;22;20505;-71
2022/07/26 10:06:02;;;;;;;1.87;1.40;;;23.50;94.20;;;;;;5049315;28;20483;-70
2022/07/26 10:08:31;;;;;;;5.17;1.33;;;23.60;95.10;;;;;;5049294;28;20474;-71
2022/07/26 10:11:03;;;;;;;1.50;1.00;;;23.90;95.40;;;;;;5049429;28;20469;-70
2022/07/26 10:13:30;;;;;;;1.23;1.00;;;24.10;93.80;;;;;;5053274;28;20491;-71
2022/07/26 10:15:58;;;;;;;2.30;1.30;;;24.10;94.00;;;;;;5053382;28;20837;-69
2022/07/26 10:18:46;;;;;;;1.50;1.10;;;24.00;94.20;;;;;;5053258;28;20877;-71
2022/07/26 10:21:23;;;;;;;1.77;1.33;;;24.00;94.90;;;;;;5052588;28;20461;-71
2022/07/26 10:23:55;;;;;;;3.00;1.30;;;23.90;94.60;;;;;;5054884;28;20466;-69
2022/07/26 10:26:44;;;;;;;1.17;1.07;;;23.80;93.50;;;;;;5052825;28;20487;-69
2022/07/26 10:29:26;;;;;;;1.80;1.13;;;24.00;93.60;;;;;;5052814;28;20458;-70
2022/07/26 10:32:18;;;;;;;1.10;0.90;;;24.20;94.20;;;;;;5053175;28;20455;-70
2022/07/26 10:34:46;;;;;;;2.30;1.60;;;24.40;95.10;;;;;;5045314;28;20471;-71
2022/07/26 10:37:22;;;;;;;1.80;1.20;;;24.60;94.20;;;;;;5052566;28;20574;-69
2022/07/26 10:40:21;;;;;;;1.40;1.27;;;24.50;94.20;;;;;;5052629;28;20470;-70
2022/07/26 10:42:48;;;;;;;1.63;0.90;;;24.50;94.90;;;;;;5052977;28;20479;-70
2022/07/26 10:45:20;;;;;;;1.20;1.10;;;24.40;94.50;;;;;;5052346;28;20486;-70
2022/07/26 10:48:10;;;;;;;1.03;0.90;;;24.40;94.70;;;;;;5052417;28;20497;-71
2022/07/26 10:50:37;;;;;;;2.63;1.10;;;24.50;92.60;;;;;;5051978;28;20462;-70
2022/07/26 10:53:04;;;;;;;1.00;0.90;;;24.60;92.90;;;;;;5053202;28;20470;-70
2022/07/26 10:55:45;;;;;;;1.63;1.10;;;24.80;94.00;;;;;;5052416;28;20487;-69
2022/07/26 10:58:12;;;;;;;1.60;1.23;;;25.20;92.80;;;;;;5052464;28;20491;-69
2022/07/26 11:00:39;;;;;;;1.77;1.30;;;25.30;93.40;;;;;;5051889;28;20467;-70
2022/07/26 11:03:06;;;;;;;2.33;1.70;;;25.60;93.80;;;;;;5052347;28;20460;-70
2022/07/26 11:05:33;;;;;;;2.37;1.10;;;25.90;92.80;;;;;;5052505;28;20483;-71
2022/07/26 11:08:06;;;;;;;1.40;1.30;;;25.90;93.10;;;;;;5050094;28;20817;-69
2022/07/26 11:10:36;;;;;;;1.23;1.13;;;26.00;93.00;;;;;;5053274;28;20456;-71
2022/07/26 11:13:15;;;;;;;1.67;1.23;;;26.00;92.70;;;;;;5054164;28;20558;-72
2022/07/26 11:15:45;;;;;;;1.20;1.03;;;26.20;93.40;;;;;;5052271;28;20515;-72
2022/07/26 11:18:21;;;;;;;1.00;0.90;;;26.20;92.80;;;;;;5052416;28;20537;-72
2022/07/26 11:20:51;;;;;;;1.70;1.40;;;26.20;92.70;;;;;;5050121;28;20873;-70
2022/07/26 11:23:30;;;;;;;1.83;1.73;;;26.20;92.10;;;;;;5052144;28;20550;-71
2022/07/26 11:26:07;;;;;;;1.13;1.03;;;26.00;92.30;;;;;;5051775;28;21010;-71
2022/07/26 11:28:51;;;;;;;3.20;1.27;;;26.00;94.00;;;;;;5051989;28;20479;-68
2022/07/26 11:31:19;;;;;;;1.33;1.00;;;26.00;92.50;;;;;;5051321;28;20459;-68
2022/07/26 11:33:49;;;;;;;1.83;1.70;;;25.80;92.30;;;;;;5052123;28;20463;-70
2022/07/26 11:36:16;;;;;;;1.97;1.10;;;25.60;92.30;;;;;;5051652;28;21200;-68
2022/07/26 11:38:48;;;;;;;2.00;1.10;;;25.70;93.90;;;;;;5051949;28;20519;-70
2022/07/26 11:41:19;;;;;;;2.30;1.00;;;25.90;92.90;;;;;;5051532;28;20468;-71
2022/07/26 11:43:45;;;;;;;1.60;1.50;;;26.20;93.50;;;;;;5051369;28;20460;-70
2022/07/26 11:46:12;;;;;;;1.10;1.00;;;26.30;92.30;;;;;;5051851;28;20487;-70
2022/07/26 11:48:45;;;;;;;1.27;1.07;;;26.30;92.20;;;;;;5051452;28;20456;-71
2022/07/26 11:51:14;;;;;;;1.10;1.00;;;26.40;93.00;;;;;;5051332;28;20467;-69
2022/07/26 11:53:41;;;;;;;1.70;1.10;;;26.60;93.30;;;;;;5051589;28;20473;-71
2022/07/26 11:56:27;;;;;;;0.90;0.80;;;26.60;92.10;;;;;;5052116;28;20488;-67
2022/07/26 11:58:55;;;;;;;1.20;1.07;;;26.60;91.50;;;;;;5051501;28;20839;-69
2022/07/26 12:01:23;;;;;;;1.47;1.30;;;26.60;91.90;;;;;;5049261;28;20468;-68
2022/07/26 12:03:51;;;;;;;1.37;1.20;;;26.60;91.90;;;;;;5051434;28;20479;-67
2022/07/26 12:06:22;;;;;;;1.40;1.00;;;26.80;92.40;;;;;;5051920;28;20479;-72
2022/07/26 12:08:50;;;;;;;1.50;1.00;;;26.90;90.10;;;;;;5051138;28;20467;-68
2022/07/26 12:11:19;;;;;;;0.93;0.80;;;27.00;90.80;;;;;;5050964;28;20562;-69
2022/07/26 12:13:56;;;;;;;3.60;1.20;;;27.10;90.70;;;;;;5064633;28;20486;-69
2022/07/26 12:16:44;;;;;;;1.70;1.20;;;27.30;91.60;;;;;;5070962;28;20854;-70
2022/07/26 12:19:24;;;;;;;1.30;1.10;;;27.20;90.40;;;;;;5070188;28;21007;-69
2022/07/26 12:21:53;;;;;;;1.23;1.13;;;27.00;90.40;;;;;;5070263;28;20462;-68
2022/07/26 12:24:45;;;;;;;1.10;1.00;;;27.00;91.10;;;;;;5070822;28;20612;-71
2022/07/26 12:27:14;;;;;;;1.33;1.20;;;26.80;90.30;;;;;;5070351;28;20483;-75
2022/07/26 12:29:43;;;;;;;1.40;1.17;;;26.60;90.10;;;;;;5069852;28;20455;-74
2022/07/26 12:32:13;;;;;;;1.53;1.20;;;26.60;91.50;;;;;;5070573;28;20974;-70
2022/07/26 12:34:54;;;;;;;1.23;1.03;;;26.80;90.20;;;;;;5048627;28;20821;-70
2022/07/26 12:37:22;;;;;;;1.17;0.97;;;26.80;90.10;;;;;;5051171;28;20543;-69
2022/07/26 12:40:07;;;;;;;1.00;0.90;;;26.70;90.60;;;;;;5049656;28;20520;-71
2022/07/26 12:42:37;;;;;;;1.30;1.20;;;26.60;90.60;;;;;;5050630;28;20460;-70
2022/07/26 12:45:07;;;;;;;1.30;1.03;;;26.60;91.50;;;;;;5050133;28;20518;-73
2022/07/26 12:47:34;;;;;;;1.93;1.10;;;26.40;89.90;;;;;;5050942;28;20483;-72
2022/07/26 12:50:02;;;;;;;2.10;1.10;;;26.20;89.70;;;;;;5050559;28;20827;-71
2022/07/26 12:52:29;;;;;;;1.20;0.90;;;26.00;90.50;;;;;;5050878;28;20904;-68
2022/07/26 12:54:56;;;;;;;1.10;0.93;;;26.00;89.70;;;;;;5049785;28;20498;-70